Germantown, Illinois
Current Conditions -  °F | °C
As of 5:13 AM on Tuesday 21 Oct 2014 (Local Time) from KBLV Reporting Station
Clear Clear  
Wind Chill: 45°   Ceiling: Unl
Heat Index: 45°   Visibility: 10mi
Dew Point: 43°   Wind: 0mph
Humidity: 93%   Direction: NA
Pressure: 30.04"   Gusts: NA
Location:  38.55°N, 89.54°W
Report Text: KBLV 211013Z 00000KT 10SM CLR 07/06 A3004 RMK AO2A
Loading
Personal Weather Stations






























Interactive Weather Map
Tropical Storm Tracking
New forecast layout! Learn more

10-Day Weather Forecast

Advertisements
Track Severe Weather on mobile